sensor_id;sensor_type;location;lat;lon;timestamp;P1;durP1;ratioP1;P2;durP2;ratioP2
71790;SDS011;59638;52.126;5.434;2022-11-28T00:02:01;5.57;;;3.33;;
71790;SDS011;59638;52.126;5.434;2022-11-28T00:04:28;4.03;;;3.03;;
71790;SDS011;59638;52.126;5.434;2022-11-28T00:06:55;6.70;;;3.83;;
71790;SDS011;59638;52.126;5.434;2022-11-28T00:09:21;7.43;;;3.40;;
71790;SDS011;59638;52.126;5.434;2022-11-28T00:11:48;4.50;;;3.13;;
71790;SDS011;59638;52.126;5.434;2022-11-28T00:14:16;4.32;;;2.55;;
71790;SDS011;59638;52.126;5.434;2022-11-28T00:16:43;6.75;;;3.13;;
71790;SDS011;59638;52.126;5.434;2022-11-28T00:19:10;9.57;;;3.42;;
71790;SDS011;59638;52.126;5.434;2022-11-28T00:21:38;3.60;;;3.15;;
71790;SDS011;59638;52.126;5.434;2022-11-28T00:24:06;4.72;;;2.92;;
71790;SDS011;59638;52.126;5.434;2022-11-28T00:26:33;4.35;;;3.30;;
71790;SDS011;59638;52.126;5.434;2022-11-28T00:29:05;5.90;;;3.15;;
71790;SDS011;59638;52.126;5.434;2022-11-28T00:31:34;9.00;;;4.47;;
71790;SDS011;59638;52.126;5.434;2022-11-28T00:34:07;4.68;;;3.33;;
71790;SDS011;59638;52.126;5.434;2022-11-28T00:36:35;3.95;;;3.15;;
71790;SDS011;59638;52.126;5.434;2022-11-28T00:39:02;8.35;;;3.00;;
71790;SDS011;59638;52.126;5.434;2022-11-28T00:41:29;5.90;;;3.42;;
71790;SDS011;59638;52.126;5.434;2022-11-28T00:43:56;4.57;;;3.33;;
71790;SDS011;59638;52.126;5.434;2022-11-28T00:46:23;6.88;;;3.30;;
71790;SDS011;59638;52.126;5.434;2022-11-28T00:48:50;10.02;;;3.22;;
71790;SDS011;59638;52.126;5.434;2022-11-28T00:51:17;10.50;;;3.22;;
71790;SDS011;59638;52.126;5.434;2022-11-28T00:53:46;3.90;;;3.05;;
71790;SDS011;59638;52.126;5.434;2022-11-28T00:56:14;8.85;;;3.50;;
71790;SDS011;59638;52.126;5.434;2022-11-28T00:58:43;3.75;;;2.63;;
71790;SDS011;59638;52.126;5.434;2022-11-28T01:01:10;5.60;;;2.90;;
71790;SDS011;59638;52.126;5.434;2022-11-28T01:03:41;10.15;;;3.17;;
71790;SDS011;59638;52.126;5.434;2022-11-28T01:06:08;10.20;;;2.65;;
71790;SDS011;59638;52.126;5.434;2022-11-28T01:08:35;7.35;;;3.35;;
71790;SDS011;59638;52.126;5.434;2022-11-28T01:11:02;6.88;;;2.60;;
71790;SDS011;59638;52.126;5.434;2022-11-28T01:13:29;8.30;;;2.97;;
71790;SDS011;59638;52.126;5.434;2022-11-28T01:15:56;6.75;;;3.20;;
71790;SDS011;59638;52.126;5.434;2022-11-28T01:18:23;6.53;;;3.17;;
71790;SDS011;59638;52.126;5.434;2022-11-28T01:20:50;3.40;;;2.67;;
71790;SDS011;59638;52.126;5.434;2022-11-28T01:23:16;4.72;;;3.42;;
71790;SDS011;59638;52.126;5.434;2022-11-28T01:25:44;8.98;;;2.90;;
71790;SDS011;59638;52.126;5.434;2022-11-28T01:28:10;7.32;;;2.85;;
71790;SDS011;59638;52.126;5.434;2022-11-28T01:30:37;6.30;;;3.47;;
71790;SDS011;59638;52.126;5.434;2022-11-28T01:33:03;8.65;;;3.90;;
71790;SDS011;59638;52.126;5.434;2022-11-28T01:35:29;3.97;;;2.65;;
71790;SDS011;59638;52.126;5.434;2022-11-28T01:37:56;3.72;;;2.50;;
71790;SDS011;59638;52.126;5.434;2022-11-28T01:40:22;7.40;;;3.08;;
71790;SDS011;59638;52.126;5.434;2022-11-28T01:42:49;5.97;;;2.77;;
71790;SDS011;59638;52.126;5.434;2022-11-28T01:45:18;7.65;;;2.50;;
71790;SDS011;59638;52.126;5.434;2022-11-28T01:47:50;7.25;;;2.78;;
71790;SDS011;59638;52.126;5.434;2022-11-28T01:50:19;6.85;;;2.65;;
71790;SDS011;59638;52.126;5.434;2022-11-28T01:52:48;3.40;;;2.30;;
71790;SDS011;59638;52.126;5.434;2022-11-28T01:55:17;3.73;;;2.60;;
71790;SDS011;59638;52.126;5.434;2022-11-28T01:57:48;2.85;;;2.20;;
71790;SDS011;59638;52.126;5.434;2022-11-28T02:00:17;3.92;;;2.50;;
71790;SDS011;59638;52.126;5.434;2022-11-28T02:02:53;1.98;;;1.10;;
71790;SDS011;59638;52.126;5.434;2022-11-28T02:05:25;4.15;;;2.45;;
71790;SDS011;59638;52.126;5.434;2022-11-28T02:07:52;4.30;;;2.23;;
71790;SDS011;59638;52.126;5.434;2022-11-28T02:10:20;4.72;;;2.40;;
71790;SDS011;59638;52.126;5.434;2022-11-28T02:18:32;3.35;;;2.55;;
71790;SDS011;59638;52.126;5.434;2022-11-28T02:21:19;5.40;;;2.10;;
71790;SDS011;59638;52.126;5.434;2022-11-28T02:27:22;2.70;;;1.50;;
71790;SDS011;59638;52.126;5.434;2022-11-28T02:30:10;4.18;;;1.75;;
71790;SDS011;59638;52.126;5.434;2022-11-28T02:32:51;7.97;;;2.47;;
71790;SDS011;59638;52.126;5.434;2022-11-28T02:35:40;2.63;;;2.05;;
71790;SDS011;59638;52.126;5.434;2022-11-28T02:41:10;4.68;;;2.20;;
71790;SDS011;59638;52.126;5.434;2022-11-28T02:46:33;2.88;;;2.05;;
71790;SDS011;59638;52.126;5.434;2022-11-28T02:49:13;8.17;;;2.33;;
71790;SDS011;59638;52.126;5.434;2022-11-28T02:51:48;3.88;;;2.65;;
71790;SDS011;59638;52.126;5.434;2022-11-28T02:54:18;5.55;;;2.33;;
71790;SDS011;59638;52.126;5.434;2022-11-28T02:56:47;3.20;;;2.10;;
71790;SDS011;59638;52.126;5.434;2022-11-28T02:59:44;9.52;;;1.95;;
71790;SDS011;59638;52.126;5.434;2022-11-28T03:02:03;4.13;;;1.80;;
71790;SDS011;59638;52.126;5.434;2022-11-28T03:10:32;3.10;;;1.58;;
71790;SDS011;59638;52.126;5.434;2022-11-28T03:13:21;3.05;;;2.10;;
71790;SDS011;59638;52.126;5.434;2022-11-28T03:22:09;2.65;;;1.77;;
71790;SDS011;59638;52.126;5.434;2022-11-28T03:24:59;5.68;;;1.50;;
71790;SDS011;59638;52.126;5.434;2022-11-28T03:27:44;5.15;;;1.98;;
71790;SDS011;59638;52.126;5.434;2022-11-28T03:30:17;2.23;;;1.53;;
71790;SDS011;59638;52.126;5.434;2022-11-28T03:32:50;3.63;;;1.27;;
71790;SDS011;59638;52.126;5.434;2022-11-28T03:35:21;2.78;;;1.80;;
71790;SDS011;59638;52.126;5.434;2022-11-28T03:37:53;4.53;;;1.80;;
71790;SDS011;59638;52.126;5.434;2022-11-28T03:40:24;5.90;;;2.05;;
71790;SDS011;59638;52.126;5.434;2022-11-28T03:43:02;3.43;;;1.60;;
71790;SDS011;59638;52.126;5.434;2022-11-28T03:45:40;4.85;;;1.85;;
71790;SDS011;59638;52.126;5.434;2022-11-28T03:48:14;8.25;;;2.05;;
71790;SDS011;59638;52.126;5.434;2022-11-28T03:50:46;7.53;;;2.20;;
71790;SDS011;59638;52.126;5.434;2022-11-28T03:56:18;5.33;;;1.90;;
71790;SDS011;59638;52.126;5.434;2022-11-28T03:59:00;6.22;;;2.42;;
71790;SDS011;59638;52.126;5.434;2022-11-28T04:01:33;3.05;;;2.42;;
71790;SDS011;59638;52.126;5.434;2022-11-28T04:09:25;4.38;;;2.28;;
71790;SDS011;59638;52.126;5.434;2022-11-28T04:12:06;2.38;;;1.88;;
71790;SDS011;59638;52.126;5.434;2022-11-28T04:14:43;4.47;;;2.10;;
71790;SDS011;59638;52.126;5.434;2022-11-28T04:17:18;4.75;;;2.70;;
71790;SDS011;59638;52.126;5.434;2022-11-28T04:19:57;2.95;;;1.90;;
71790;SDS011;59638;52.126;5.434;2022-11-28T04:22:31;4.60;;;2.17;;
71790;SDS011;59638;52.126;5.434;2022-11-28T04:25:08;7.25;;;2.30;;
71790;SDS011;59638;52.126;5.434;2022-11-28T04:27:48;10.40;;;2.40;;
71790;SDS011;59638;52.126;5.434;2022-11-28T04:30:21;5.05;;;2.38;;
71790;SDS011;59638;52.126;5.434;2022-11-28T04:32:48;3.58;;;2.50;;
71790;SDS011;59638;52.126;5.434;2022-11-28T04:35:21;3.50;;;2.10;;
71790;SDS011;59638;52.126;5.434;2022-11-28T04:37:51;3.88;;;2.55;;
71790;SDS011;59638;52.126;5.434;2022-11-28T04:40:19;5.50;;;2.60;;
71790;SDS011;59638;52.126;5.434;2022-11-28T04:42:51;6.57;;;2.33;;
71790;SDS011;59638;52.126;5.434;2022-11-28T04:45:23;3.42;;;2.80;;
71790;SDS011;59638;52.126;5.434;2022-11-28T04:47:55;6.40;;;2.58;;
71790;SDS011;59638;52.126;5.434;2022-11-28T04:50:22;4.90;;;2.47;;
71790;SDS011;59638;52.126;5.434;2022-11-28T04:52:59;6.72;;;2.42;;
71790;SDS011;59638;52.126;5.434;2022-11-28T04:55:43;3.67;;;2.28;;
71790;SDS011;59638;52.126;5.434;2022-11-28T04:58:24;9.85;;;3.00;;
71790;SDS011;59638;52.126;5.434;2022-11-28T05:00:57;7.43;;;2.70;;
71790;SDS011;59638;52.126;5.434;2022-11-28T05:03:26;4.82;;;2.70;;
71790;SDS011;59638;52.126;5.434;2022-11-28T05:05:55;3.03;;;2.38;;
71790;SDS011;59638;52.126;5.434;2022-11-28T05:08:21;4.55;;;2.40;;
71790;SDS011;59638;52.126;5.434;2022-11-28T05:10:48;3.05;;;2.45;;
71790;SDS011;59638;52.126;5.434;2022-11-28T05:13:14;3.37;;;2.47;;
71790;SDS011;59638;52.126;5.434;2022-11-28T05:15:41;5.35;;;2.65;;
71790;SDS011;59638;52.126;5.434;2022-11-28T05:18:07;5.00;;;2.58;;
71790;SDS011;59638;52.126;5.434;2022-11-28T05:20:35;4.45;;;2.22;;
71790;SDS011;59638;52.126;5.434;2022-11-28T05:23:02;4.10;;;1.95;;
71790;SDS011;59638;52.126;5.434;2022-11-28T05:25:29;9.57;;;2.73;;
71790;SDS011;59638;52.126;5.434;2022-11-28T05:27:55;6.95;;;2.50;;
71790;SDS011;59638;52.126;5.434;2022-11-28T05:30:22;3.15;;;2.30;;
71790;SDS011;59638;52.126;5.434;2022-11-28T05:32:48;5.57;;;2.60;;
71790;SDS011;59638;52.126;5.434;2022-11-28T05:35:14;9.20;;;2.88;;
71790;SDS011;59638;52.126;5.434;2022-11-28T05:37:41;4.17;;;2.70;;
71790;SDS011;59638;52.126;5.434;2022-11-28T05:40:07;5.47;;;2.67;;
71790;SDS011;59638;52.126;5.434;2022-11-28T05:42:34;8.02;;;2.10;;
71790;SDS011;59638;52.126;5.434;2022-11-28T05:45:01;4.32;;;2.45;;
71790;SDS011;59638;52.126;5.434;2022-11-28T05:47:28;5.03;;;3.10;;
71790;SDS011;59638;52.126;5.434;2022-11-28T05:49:56;4.25;;;2.40;;
71790;SDS011;59638;52.126;5.434;2022-11-28T05:52:22;5.25;;;2.50;;
71790;SDS011;59638;52.126;5.434;2022-11-28T05:54:49;3.92;;;2.70;;
71790;SDS011;59638;52.126;5.434;2022-11-28T05:57:15;7.13;;;2.60;;
71790;SDS011;59638;52.126;5.434;2022-11-28T05:59:42;3.40;;;2.45;;
71790;SDS011;59638;52.126;5.434;2022-11-28T06:02:08;5.10;;;2.87;;
71790;SDS011;59638;52.126;5.434;2022-11-28T06:04:35;3.15;;;2.72;;
71790;SDS011;59638;52.126;5.434;2022-11-28T06:07:01;5.53;;;2.17;;
71790;SDS011;59638;52.126;5.434;2022-11-28T06:09:28;6.50;;;2.50;;
71790;SDS011;59638;52.126;5.434;2022-11-28T06:11:54;6.40;;;2.58;;
71790;SDS011;59638;52.126;5.434;2022-11-28T06:14:20;4.38;;;2.72;;
71790;SDS011;59638;52.126;5.434;2022-11-28T06:16:47;6.05;;;2.38;;
71790;SDS011;59638;52.126;5.434;2022-11-28T06:19:13;3.47;;;2.50;;
71790;SDS011;59638;52.126;5.434;2022-11-28T06:21:40;7.05;;;2.95;;
71790;SDS011;59638;52.126;5.434;2022-11-28T06:24:08;2.75;;;2.40;;
71790;SDS011;59638;52.126;5.434;2022-11-28T06:26:34;3.67;;;1.97;;
71790;SDS011;59638;52.126;5.434;2022-11-28T06:29:01;4.60;;;2.72;;
71790;SDS011;59638;52.126;5.434;2022-11-28T06:31:28;4.35;;;2.42;;
71790;SDS011;59638;52.126;5.434;2022-11-28T06:33:56;3.70;;;2.50;;
71790;SDS011;59638;52.126;5.434;2022-11-28T06:36:23;3.30;;;2.58;;
71790;SDS011;59638;52.126;5.434;2022-11-28T06:38:51;3.70;;;2.67;;
71790;SDS011;59638;52.126;5.434;2022-11-28T06:41:19;3.20;;;2.22;;
71790;SDS011;59638;52.126;5.434;2022-11-28T06:43:45;3.15;;;2.53;;
71790;SDS011;59638;52.126;5.434;2022-11-28T06:46:16;4.63;;;2.85;;
71790;SDS011;59638;52.126;5.434;2022-11-28T06:48:44;3.65;;;3.20;;
71790;SDS011;59638;52.126;5.434;2022-11-28T06:51:12;3.30;;;2.77;;
71790;SDS011;59638;52.126;5.434;2022-11-28T06:53:39;3.08;;;2.60;;
71790;SDS011;59638;52.126;5.434;2022-11-28T06:56:06;3.72;;;2.80;;
71790;SDS011;59638;52.126;5.434;2022-11-28T06:58:35;6.22;;;3.33;;
71790;SDS011;59638;52.126;5.434;2022-11-28T07:01:09;5.22;;;3.30;;
71790;SDS011;59638;52.126;5.434;2022-11-28T07:03:43;4.00;;;2.77;;
71790;SDS011;59638;52.126;5.434;2022-11-28T07:06:10;4.45;;;3.00;;
71790;SDS011;59638;52.126;5.434;2022-11-28T07:08:39;4.65;;;2.80;;
71790;SDS011;59638;52.126;5.434;2022-11-28T07:11:09;6.40;;;2.95;;
71790;SDS011;59638;52.126;5.434;2022-11-28T07:13:42;4.30;;;2.70;;
71790;SDS011;59638;52.126;5.434;2022-11-28T07:16:22;3.53;;;2.90;;
71790;SDS011;59638;52.126;5.434;2022-11-28T07:18:52;5.07;;;3.25;;
71790;SDS011;59638;52.126;5.434;2022-11-28T07:21:19;4.88;;;3.53;;
71790;SDS011;59638;52.126;5.434;2022-11-28T07:23:46;5.32;;;3.13;;
71790;SDS011;59638;52.126;5.434;2022-11-28T07:26:14;4.97;;;3.47;;
71790;SDS011;59638;52.126;5.434;2022-11-28T07:28:42;4.17;;;3.17;;
71790;SDS011;59638;52.126;5.434;2022-11-28T07:31:10;4.35;;;3.10;;
71790;SDS011;59638;52.126;5.434;2022-11-28T07:33:58;6.68;;;3.38;;
71790;SDS011;59638;52.126;5.434;2022-11-28T07:36:26;6.63;;;3.85;;
71790;SDS011;59638;52.126;5.434;2022-11-28T07:38:54;8.13;;;4.00;;
71790;SDS011;59638;52.126;5.434;2022-11-28T07:41:23;5.47;;;3.57;;
71790;SDS011;59638;52.126;5.434;2022-11-28T07:43:59;4.90;;;3.17;;
71790;SDS011;59638;52.126;5.434;2022-11-28T07:46:28;7.70;;;4.05;;
71790;SDS011;59638;52.126;5.434;2022-11-28T07:48:56;4.25;;;3.35;;
71790;SDS011;59638;52.126;5.434;2022-11-28T07:51:24;4.93;;;4.03;;
71790;SDS011;59638;52.126;5.434;2022-11-28T07:53:52;4.07;;;3.67;;
71790;SDS011;59638;52.126;5.434;2022-11-28T07:56:20;5.82;;;3.95;;
71790;SDS011;59638;52.126;5.434;2022-11-28T07:58:48;7.75;;;4.25;;
71790;SDS011;59638;52.126;5.434;2022-11-28T08:03:43;6.57;;;4.25;;
71790;SDS011;59638;52.126;5.434;2022-11-28T08:06:10;10.33;;;4.70;;
71790;SDS011;59638;52.126;5.434;2022-11-28T08:08:39;9.45;;;5.57;;
71790;SDS011;59638;52.126;5.434;2022-11-28T08:11:06;12.18;;;5.78;;
71790;SDS011;59638;52.126;5.434;2022-11-28T08:13:34;8.57;;;5.47;;
71790;SDS011;59638;52.126;5.434;2022-11-28T08:16:05;8.88;;;5.53;;
71790;SDS011;59638;52.126;5.434;2022-11-28T08:18:33;7.40;;;4.70;;
71790;SDS011;59638;52.126;5.434;2022-11-28T08:21:10;11.35;;;5.43;;
71790;SDS011;59638;52.126;5.434;2022-11-28T08:23:45;9.60;;;5.43;;
71790;SDS011;59638;52.126;5.434;2022-11-28T08:26:12;10.73;;;5.57;;
71790;SDS011;59638;52.126;5.434;2022-11-28T08:28:40;7.93;;;4.82;;
71790;SDS011;59638;52.126;5.434;2022-11-28T08:31:11;8.07;;;5.30;;
71790;SDS011;59638;52.126;5.434;2022-11-28T08:33:38;10.45;;;5.68;;
71790;SDS011;59638;52.126;5.434;2022-11-28T08:36:06;9.07;;;5.65;;
71790;SDS011;59638;52.126;5.434;2022-11-28T08:38:33;7.88;;;5.40;;
71790;SDS011;59638;52.126;5.434;2022-11-28T08:41:00;9.57;;;5.65;;
71790;SDS011;59638;52.126;5.434;2022-11-28T08:43:28;11.10;;;5.07;;
71790;SDS011;59638;52.126;5.434;2022-11-28T08:45:54;9.65;;;4.80;;
71790;SDS011;59638;52.126;5.434;2022-11-28T08:48:21;10.98;;;5.20;;
71790;SDS011;59638;52.126;5.434;2022-11-28T08:50:48;7.10;;;5.60;;
71790;SDS011;59638;52.126;5.434;2022-11-28T08:53:15;8.13;;;5.25;;
71790;SDS011;59638;52.126;5.434;2022-11-28T08:55:44;9.30;;;4.93;;
71790;SDS011;59638;52.126;5.434;2022-11-28T08:58:10;7.22;;;4.70;;
71790;SDS011;59638;52.126;5.434;2022-11-28T09:00:37;9.68;;;4.45;;
71790;SDS011;59638;52.126;5.434;2022-11-28T09:03:04;8.73;;;4.65;;
71790;SDS011;59638;52.126;5.434;2022-11-28T09:05:31;5.97;;;4.35;;
71790;SDS011;59638;52.126;5.434;2022-11-28T09:07:57;7.73;;;4.63;;
71790;SDS011;59638;52.126;5.434;2022-11-28T09:10:23;8.32;;;4.72;;
71790;SDS011;59638;52.126;5.434;2022-11-28T09:12:50;9.35;;;4.75;;
71790;SDS011;59638;52.126;5.434;2022-11-28T09:15:17;6.95;;;4.28;;
71790;SDS011;59638;52.126;5.434;2022-11-28T09:17:44;7.13;;;5.07;;
71790;SDS011;59638;52.126;5.434;2022-11-28T09:20:11;5.97;;;4.27;;
71790;SDS011;59638;52.126;5.434;2022-11-28T09:22:38;6.88;;;3.95;;
71790;SDS011;59638;52.126;5.434;2022-11-28T09:25:05;5.60;;;4.35;;
71790;SDS011;59638;52.126;5.434;2022-11-28T09:27:32;7.28;;;4.32;;
71790;SDS011;59638;52.126;5.434;2022-11-28T09:29:59;8.30;;;4.60;;
71790;SDS011;59638;52.126;5.434;2022-11-28T09:32:25;7.33;;;4.37;;
71790;SDS011;59638;52.126;5.434;2022-11-28T09:34:51;6.03;;;4.55;;
71790;SDS011;59638;52.126;5.434;2022-11-28T09:37:18;10.82;;;4.65;;
71790;SDS011;59638;52.126;5.434;2022-11-28T09:39:44;9.30;;;5.03;;
71790;SDS011;59638;52.126;5.434;2022-11-28T09:42:32;16.20;;;5.68;;
71790;SDS011;59638;52.126;5.434;2022-11-28T09:45:09;12.23;;;5.20;;
71790;SDS011;59638;52.126;5.434;2022-11-28T09:47:39;10.90;;;5.90;;
71790;SDS011;59638;52.126;5.434;2022-11-28T09:50:14;11.73;;;5.88;;
71790;SDS011;59638;52.126;5.434;2022-11-28T09:52:56;14.57;;;6.30;;
71790;SDS011;59638;52.126;5.434;2022-11-28T09:57:59;13.57;;;6.80;;
71790;SDS011;59638;52.126;5.434;2022-11-28T10:00:33;15.35;;;6.80;;
71790;SDS011;59638;52.126;5.434;2022-11-28T10:14:10;34.45;;;8.85;;
71790;SDS011;59638;52.126;5.434;2022-11-28T10:20:23;40.85;;;8.65;;
71790;SDS011;59638;52.126;5.434;2022-11-28T10:22:59;38.67;;;10.07;;
71790;SDS011;59638;52.126;5.434;2022-11-28T10:25:41;37.90;;;9.77;;
71790;SDS011;59638;52.126;5.434;2022-11-28T10:28:22;35.42;;;10.20;;
71790;SDS011;59638;52.126;5.434;2022-11-28T10:30:53;37.33;;;10.70;;
71790;SDS011;59638;52.126;5.434;2022-11-28T10:33:35;42.38;;;10.55;;
71790;SDS011;59638;52.126;5.434;2022-11-28T10:36:08;36.95;;;11.15;;
71790;SDS011;59638;52.126;5.434;2022-11-28T10:38:43;47.27;;;10.87;;
71790;SDS011;59638;52.126;5.434;2022-11-28T10:41:15;40.75;;;11.27;;
71790;SDS011;59638;52.126;5.434;2022-11-28T10:46:58;37.45;;;12.32;;
71790;SDS011;59638;52.126;5.434;2022-11-28T10:55:43;45.33;;;12.23;;
71790;SDS011;59638;52.126;5.434;2022-11-28T10:58:30;45.13;;;12.57;;
71790;SDS011;59638;52.126;5.434;2022-11-28T11:01:03;42.92;;;12.68;;
71790;SDS011;59638;52.126;5.434;2022-11-28T11:03:31;37.17;;;11.85;;
71790;SDS011;59638;52.126;5.434;2022-11-28T11:06:00;55.00;;;14.20;;
71790;SDS011;59638;52.126;5.434;2022-11-28T11:08:28;53.60;;;13.38;;
71790;SDS011;59638;52.126;5.434;2022-11-28T11:13:29;41.13;;;12.95;;
71790;SDS011;59638;52.126;5.434;2022-11-28T11:18:33;56.33;;;13.43;;
71790;SDS011;59638;52.126;5.434;2022-11-28T11:23:40;44.10;;;13.23;;
71790;SDS011;59638;52.126;5.434;2022-11-28T11:26:07;48.72;;;14.52;;
71790;SDS011;59638;52.126;5.434;2022-11-28T11:28:48;56.20;;;14.35;;
71790;SDS011;59638;52.126;5.434;2022-11-28T11:33:52;46.03;;;13.35;;
71790;SDS011;59638;52.126;5.434;2022-11-28T11:36:28;50.58;;;12.75;;
71790;SDS011;59638;52.126;5.434;2022-11-28T11:39:03;50.78;;;12.85;;
71790;SDS011;59638;52.126;5.434;2022-11-28T11:41:33;48.53;;;13.45;;
71790;SDS011;59638;52.126;5.434;2022-11-28T11:49:28;50.00;;;13.73;;
71790;SDS011;59638;52.126;5.434;2022-11-28T11:52:01;50.65;;;14.13;;
71790;SDS011;59638;52.126;5.434;2022-11-28T11:57:12;45.30;;;13.00;;
71790;SDS011;59638;52.126;5.434;2022-11-28T11:59:59;44.13;;;14.10;;
71790;SDS011;59638;52.126;5.434;2022-11-28T12:02:30;47.70;;;13.32;;
71790;SDS011;59638;52.126;5.434;2022-11-28T12:05:14;45.45;;;12.90;;
71790;SDS011;59638;52.126;5.434;2022-11-28T12:10:41;39.27;;;12.30;;
71790;SDS011;59638;52.126;5.434;2022-11-28T12:13:16;36.13;;;13.18;;
71790;SDS011;59638;52.126;5.434;2022-11-28T12:15:49;45.00;;;13.48;;
71790;SDS011;59638;52.126;5.434;2022-11-28T12:18:54;33.53;;;12.07;;
71790;SDS011;59638;52.126;5.434;2022-11-28T12:24:25;36.20;;;13.43;;
71790;SDS011;59638;52.126;5.434;2022-11-28T12:27:19;30.88;;;11.93;;
71790;SDS011;59638;52.126;5.434;2022-11-28T12:35:40;34.13;;;12.07;;
71790;SDS011;59638;52.126;5.434;2022-11-28T12:55:12;40.72;;;12.60;;
71790;SDS011;59638;52.126;5.434;2022-11-28T12:57:55;28.77;;;12.02;;
71790;SDS011;59638;52.126;5.434;2022-11-28T13:00:32;31.02;;;11.80;;
71790;SDS011;59638;52.126;5.434;2022-11-28T13:06:23;26.60;;;11.80;;
71790;SDS011;59638;52.126;5.434;2022-11-28T13:09:12;29.90;;;12.00;;
71790;SDS011;59638;52.126;5.434;2022-11-28T13:15:06;34.63;;;12.95;;
71790;SDS011;59638;52.126;5.434;2022-11-28T13:24:02;39.03;;;13.75;;
71790;SDS011;59638;52.126;5.434;2022-11-28T13:26:55;34.75;;;12.70;;
71790;SDS011;59638;52.126;5.434;2022-11-28T13:32:14;37.60;;;13.90;;
71790;SDS011;59638;52.126;5.434;2022-11-28T13:34:47;30.73;;;12.17;;
71790;SDS011;59638;52.126;5.434;2022-11-28T13:37:15;38.10;;;14.32;;
71790;SDS011;59638;52.126;5.434;2022-11-28T13:40:13;34.75;;;13.07;;
71790;SDS011;59638;52.126;5.434;2022-11-28T13:46:02;33.15;;;12.93;;
71790;SDS011;59638;52.126;5.434;2022-11-28T13:51:25;32.28;;;12.65;;
71790;SDS011;59638;52.126;5.434;2022-11-28T13:59:31;40.22;;;13.70;;
71790;SDS011;59638;52.126;5.434;2022-11-28T14:01:59;35.73;;;14.47;;
71790;SDS011;59638;52.126;5.434;2022-11-28T14:04:27;41.33;;;14.95;;
71790;SDS011;59638;52.126;5.434;2022-11-28T14:06:59;39.15;;;14.65;;
71790;SDS011;59638;52.126;5.434;2022-11-28T14:09:34;43.95;;;14.05;;
71790;SDS011;59638;52.126;5.434;2022-11-28T14:12:19;36.03;;;12.90;;
71790;SDS011;59638;52.126;5.434;2022-11-28T14:14:56;35.93;;;13.27;;
71790;SDS011;59638;52.126;5.434;2022-11-28T14:20:19;37.58;;;14.10;;
71790;SDS011;59638;52.126;5.434;2022-11-28T14:23:02;36.97;;;14.05;;
71790;SDS011;59638;52.126;5.434;2022-11-28T14:25:42;40.08;;;13.70;;
71790;SDS011;59638;52.126;5.434;2022-11-28T14:28:15;39.73;;;13.00;;
71790;SDS011;59638;52.126;5.434;2022-11-28T14:30:50;38.40;;;13.52;;
71790;SDS011;59638;52.126;5.434;2022-11-28T14:39:36;35.78;;;12.65;;
71790;SDS011;59638;52.126;5.434;2022-11-28T14:49:49;38.33;;;13.52;;
71790;SDS011;59638;52.126;5.434;2022-11-28T14:52:36;35.70;;;12.52;;
71790;SDS011;59638;52.126;5.434;2022-11-28T14:57:36;35.53;;;12.35;;
71790;SDS011;59638;52.126;5.434;2022-11-28T15:00:38;39.28;;;13.27;;
71790;SDS011;59638;52.126;5.434;2022-11-28T15:06:09;40.35;;;11.85;;
71790;SDS011;59638;52.126;5.434;2022-11-28T15:08:55;41.80;;;13.03;;
71790;SDS011;59638;52.126;5.434;2022-11-28T15:16:33;35.08;;;11.05;;
71790;SDS011;59638;52.126;5.434;2022-11-28T15:19:05;26.65;;;11.38;;
71790;SDS011;59638;52.126;5.434;2022-11-28T15:21:43;32.43;;;11.27;;
71790;SDS011;59638;52.126;5.434;2022-11-28T15:24:16;37.17;;;13.05;;
71790;SDS011;59638;52.126;5.434;2022-11-28T15:26:50;33.08;;;11.05;;
71790;SDS011;59638;52.126;5.434;2022-11-28T15:29:24;30.35;;;11.60;;
71790;SDS011;59638;52.126;5.434;2022-11-28T15:31:53;35.17;;;10.68;;
71790;SDS011;59638;52.126;5.434;2022-11-28T15:34:23;40.17;;;11.50;;
71790;SDS011;59638;52.126;5.434;2022-11-28T15:36:52;38.88;;;11.38;;
71790;SDS011;59638;52.126;5.434;2022-11-28T15:39:25;38.38;;;10.98;;
71790;SDS011;59638;52.126;5.434;2022-11-28T15:41:54;32.55;;;11.35;;
71790;SDS011;59638;52.126;5.434;2022-11-28T15:44:22;33.97;;;12.27;;
71790;SDS011;59638;52.126;5.434;2022-11-28T15:46:49;38.87;;;11.97;;
71790;SDS011;59638;52.126;5.434;2022-11-28T15:49:24;33.42;;;11.93;;
71790;SDS011;59638;52.126;5.434;2022-11-28T15:51:56;41.10;;;12.40;;
71790;SDS011;59638;52.126;5.434;2022-11-28T15:54:30;37.55;;;11.45;;
71790;SDS011;59638;52.126;5.434;2022-11-28T15:57:15;37.97;;;12.25;;
71790;SDS011;59638;52.126;5.434;2022-11-28T15:59:44;36.00;;;11.87;;
71790;SDS011;59638;52.126;5.434;2022-11-28T16:02:15;41.80;;;12.27;;
71790;SDS011;59638;52.126;5.434;2022-11-28T16:04:43;42.13;;;12.30;;
71790;SDS011;59638;52.126;5.434;2022-11-28T16:07:11;39.72;;;11.75;;
71790;SDS011;59638;52.126;5.434;2022-11-28T16:09:39;32.17;;;11.85;;
71790;SDS011;59638;52.126;5.434;2022-11-28T16:12:18;34.87;;;10.87;;
71790;SDS011;59638;52.126;5.434;2022-11-28T16:14:45;30.08;;;10.88;;
71790;SDS011;59638;52.126;5.434;2022-11-28T16:17:19;39.70;;;11.80;;
71790;SDS011;59638;52.126;5.434;2022-11-28T16:19:51;38.72;;;11.23;;
71790;SDS011;59638;52.126;5.434;2022-11-28T16:22:19;36.03;;;10.77;;
71790;SDS011;59638;52.126;5.434;2022-11-28T16:27:37;41.28;;;11.63;;
71790;SDS011;59638;52.126;5.434;2022-11-28T16:32:48;36.75;;;12.40;;
71790;SDS011;59638;52.126;5.434;2022-11-28T16:35:29;35.90;;;10.05;;
71790;SDS011;59638;52.126;5.434;2022-11-28T16:38:02;36.60;;;10.43;;
71790;SDS011;59638;52.126;5.434;2022-11-28T16:40:30;42.83;;;11.50;;
71790;SDS011;59638;52.126;5.434;2022-11-28T16:42:57;32.97;;;9.82;;
71790;SDS011;59638;52.126;5.434;2022-11-28T16:48:09;42.30;;;10.43;;
71790;SDS011;59638;52.126;5.434;2022-11-28T16:50:50;31.93;;;10.40;;
71790;SDS011;59638;52.126;5.434;2022-11-28T16:58:50;38.90;;;11.90;;
71790;SDS011;59638;52.126;5.434;2022-11-28T17:01:29;42.75;;;11.77;;
71790;SDS011;59638;52.126;5.434;2022-11-28T17:03:55;49.03;;;12.03;;
71790;SDS011;59638;52.126;5.434;2022-11-28T17:06:33;46.15;;;10.55;;
71790;SDS011;59638;52.126;5.434;2022-11-28T17:09:03;43.67;;;11.40;;
71790;SDS011;59638;52.126;5.434;2022-11-28T17:11:35;43.50;;;12.27;;
71790;SDS011;59638;52.126;5.434;2022-11-28T17:14:05;42.45;;;12.25;;
71790;SDS011;59638;52.126;5.434;2022-11-28T17:16:38;45.93;;;12.37;;
71790;SDS011;59638;52.126;5.434;2022-11-28T17:19:06;47.22;;;13.45;;
71790;SDS011;59638;52.126;5.434;2022-11-28T17:24:03;41.67;;;13.82;;
71790;SDS011;59638;52.126;5.434;2022-11-28T17:26:30;38.38;;;12.45;;
71790;SDS011;59638;52.126;5.434;2022-11-28T17:28:57;44.73;;;13.00;;
71790;SDS011;59638;52.126;5.434;2022-11-28T17:31:24;48.47;;;13.60;;
71790;SDS011;59638;52.126;5.434;2022-11-28T17:33:50;53.30;;;13.18;;
71790;SDS011;59638;52.126;5.434;2022-11-28T17:36:16;37.53;;;12.23;;
71790;SDS011;59638;52.126;5.434;2022-11-28T17:38:43;47.92;;;13.00;;
71790;SDS011;59638;52.126;5.434;2022-11-28T17:41:12;45.37;;;14.00;;
71790;SDS011;59638;52.126;5.434;2022-11-28T17:43:40;47.80;;;13.55;;
71790;SDS011;59638;52.126;5.434;2022-11-28T17:46:07;40.70;;;12.48;;
71790;SDS011;59638;52.126;5.434;2022-11-28T17:48:33;63.22;;;12.88;;
71790;SDS011;59638;52.126;5.434;2022-11-28T17:51:00;45.30;;;11.82;;
71790;SDS011;59638;52.126;5.434;2022-11-28T17:53:28;50.00;;;10.23;;
71790;SDS011;59638;52.126;5.434;2022-11-28T17:55:55;52.53;;;11.05;;
71790;SDS011;59638;52.126;5.434;2022-11-28T17:58:24;102.45;;;10.38;;
71790;SDS011;59638;52.126;5.434;2022-11-28T18:00:52;131.13;;;10.82;;
71790;SDS011;59638;52.126;5.434;2022-11-28T18:03:26;110.50;;;10.90;;
71790;SDS011;59638;52.126;5.434;2022-11-28T18:05:52;221.70;;;11.17;;